sensor_id;sensor_type;location;lat;lon;timestamp;temperature;humidity
41447;DHT22;27185;52.040;4.490;2024-01-30T00:00:19;11.30;99.90
41447;DHT22;27185;52.040;4.490;2024-01-30T00:03:05;11.30;99.90
41447;DHT22;27185;52.040;4.490;2024-01-30T00:05:51;11.30;99.90
41447;DHT22;27185;52.040;4.490;2024-01-30T00:08:36;11.40;99.90
41447;DHT22;27185;52.040;4.490;2024-01-30T00:11:22;11.40;99.90
41447;DHT22;27185;52.040;4.490;2024-01-30T00:14:08;11.40;99.90
41447;DHT22;27185;52.040;4.490;2024-01-30T00:16:53;11.50;99.90
41447;DHT22;27185;52.040;4.490;2024-01-30T00:19:39;11.50;99.90
41447;DHT22;27185;52.040;4.490;2024-01-30T00:22:24;11.60;99.90
41447;DHT22;27185;52.040;4.490;2024-01-30T00:25:10;11.60;99.90
41447;DHT22;27185;52.040;4.490;2024-01-30T00:27:56;11.70;99.90
41447;DHT22;27185;52.040;4.490;2024-01-30T00:30:41;11.70;99.90
41447;DHT22;27185;52.040;4.490;2024-01-30T00:33:27;11.70;99.90
41447;DHT22;27185;52.040;4.490;2024-01-30T00:36:12;11.80;99.90
41447;DHT22;27185;52.040;4.490;2024-01-30T00:38:58;11.80;99.90
41447;DHT22;27185;52.040;4.490;2024-01-30T00:41:43;11.80;99.90
41447;DHT22;27185;52.040;4.490;2024-01-30T00:44:29;11.80;99.90
41447;DHT22;27185;52.040;4.490;2024-01-30T00:47:15;11.80;99.90
41447;DHT22;27185;52.040;4.490;2024-01-30T00:50:00;11.80;99.90
41447;DHT22;27185;52.040;4.490;2024-01-30T00:52:46;11.90;99.90
41447;DHT22;27185;52.040;4.490;2024-01-30T00:55:31;11.90;99.90
41447;DHT22;27185;52.040;4.490;2024-01-30T00:58:17;11.90;99.90
41447;DHT22;27185;52.040;4.490;2024-01-30T01:01:04;11.90;99.90
41447;DHT22;27185;52.040;4.490;2024-01-30T01:03:50;11.90;99.90
41447;DHT22;27185;52.040;4.490;2024-01-30T01:06:35;11.90;99.90
41447;DHT22;27185;52.040;4.490;2024-01-30T01:09:21;11.80;99.90
41447;DHT22;27185;52.040;4.490;2024-01-30T01:12:07;11.90;99.90
41447;DHT22;27185;52.040;4.490;2024-01-30T01:14:52;11.90;99.90
41447;DHT22;27185;52.040;4.490;2024-01-30T01:17:39;11.90;99.90
41447;DHT22;27185;52.040;4.490;2024-01-30T01:20:24;11.80;99.90
41447;DHT22;27185;52.040;4.490;2024-01-30T01:23:10;11.80;99.90
41447;DHT22;27185;52.040;4.490;2024-01-30T01:25:55;11.80;99.90
41447;DHT22;27185;52.040;4.490;2024-01-30T01:28:41;11.80;99.90
41447;DHT22;27185;52.040;4.490;2024-01-30T01:31:27;11.80;99.90
41447;DHT22;27185;52.040;4.490;2024-01-30T01:34:15;11.80;99.90
41447;DHT22;27185;52.040;4.490;2024-01-30T01:37:00;11.80;99.90
41447;DHT22;27185;52.040;4.490;2024-01-30T01:39:46;11.70;99.90
41447;DHT22;27185;52.040;4.490;2024-01-30T01:42:31;11.70;99.90
41447;DHT22;27185;52.040;4.490;2024-01-30T01:45:17;11.70;99.90
41447;DHT22;27185;52.040;4.490;2024-01-30T01:48:02;11.70;99.90
41447;DHT22;27185;52.040;4.490;2024-01-30T01:50:48;11.70;99.90
41447;DHT22;27185;52.040;4.490;2024-01-30T01:53:34;11.80;99.90
41447;DHT22;27185;52.040;4.490;2024-01-30T01:56:19;11.70;99.90
41447;DHT22;27185;52.040;4.490;2024-01-30T01:59:06;11.70;99.90
41447;DHT22;27185;52.040;4.490;2024-01-30T02:01:56;11.70;99.90
41447;DHT22;27185;52.040;4.490;2024-01-30T02:04:42;11.70;99.90
41447;DHT22;27185;52.040;4.490;2024-01-30T02:07:31;11.70;99.90
41447;DHT22;27185;52.040;4.490;2024-01-30T02:10:16;11.70;99.90
41447;DHT22;27185;52.040;4.490;2024-01-30T02:13:02;11.70;99.90
41447;DHT22;27185;52.040;4.490;2024-01-30T02:15:50;11.70;99.90
41447;DHT22;27185;52.040;4.490;2024-01-30T02:18:36;11.70;99.90
41447;DHT22;27185;52.040;4.490;2024-01-30T02:21:27;11.70;99.90
41447;DHT22;27185;52.040;4.490;2024-01-30T02:24:13;11.70;99.90
41447;DHT22;27185;52.040;4.490;2024-01-30T02:26:58;11.80;99.90
41447;DHT22;27185;52.040;4.490;2024-01-30T02:29:44;11.80;99.90
41447;DHT22;27185;52.040;4.490;2024-01-30T02:32:29;11.80;99.90
41447;DHT22;27185;52.040;4.490;2024-01-30T02:35:15;11.80;99.90
41447;DHT22;27185;52.040;4.490;2024-01-30T02:38:00;11.80;99.90
41447;DHT22;27185;52.040;4.490;2024-01-30T02:40:46;11.80;99.90
41447;DHT22;27185;52.040;4.490;2024-01-30T02:43:31;11.80;99.90
41447;DHT22;27185;52.040;4.490;2024-01-30T02:46:17;11.80;99.90
41447;DHT22;27185;52.040;4.490;2024-01-30T02:49:02;11.80;99.90
41447;DHT22;27185;52.040;4.490;2024-01-30T02:51:48;11.80;99.90
41447;DHT22;27185;52.040;4.490;2024-01-30T02:54:34;11.80;99.90
41447;DHT22;27185;52.040;4.490;2024-01-30T02:57:19;11.80;99.90
41447;DHT22;27185;52.040;4.490;2024-01-30T03:00:05;11.80;99.90
41447;DHT22;27185;52.040;4.490;2024-01-30T03:02:51;11.80;99.90
41447;DHT22;27185;52.040;4.490;2024-01-30T03:05:37;11.80;99.90
41447;DHT22;27185;52.040;4.490;2024-01-30T03:08:22;11.80;99.90
41447;DHT22;27185;52.040;4.490;2024-01-30T03:11:08;11.80;99.90
41447;DHT22;27185;52.040;4.490;2024-01-30T03:13:53;11.80;99.90
41447;DHT22;27185;52.040;4.490;2024-01-30T03:16:39;11.80;99.90
41447;DHT22;27185;52.040;4.490;2024-01-30T03:19:24;11.80;99.90
41447;DHT22;27185;52.040;4.490;2024-01-30T03:22:10;11.80;99.90
41447;DHT22;27185;52.040;4.490;2024-01-30T03:24:56;11.80;99.90
41447;DHT22;27185;52.040;4.490;2024-01-30T03:27:41;11.80;99.90
41447;DHT22;27185;52.040;4.490;2024-01-30T03:30:27;11.90;99.90
41447;DHT22;27185;52.040;4.490;2024-01-30T03:33:12;11.80;99.90
41447;DHT22;27185;52.040;4.490;2024-01-30T03:36:03;11.90;99.90
41447;DHT22;27185;52.040;4.490;2024-01-30T03:38:48;11.90;99.90
41447;DHT22;27185;52.040;4.490;2024-01-30T03:41:34;11.90;99.90
41447;DHT22;27185;52.040;4.490;2024-01-30T03:44:19;11.90;99.90
41447;DHT22;27185;52.040;4.490;2024-01-30T03:47:05;11.90;99.90
41447;DHT22;27185;52.040;4.490;2024-01-30T03:49:50;11.90;99.90
41447;DHT22;27185;52.040;4.490;2024-01-30T03:52:36;11.90;99.90
41447;DHT22;27185;52.040;4.490;2024-01-30T03:55:22;11.90;99.90
41447;DHT22;27185;52.040;4.490;2024-01-30T03:58:07;12.00;99.90
41447;DHT22;27185;52.040;4.490;2024-01-30T04:00:53;12.00;99.90
41447;DHT22;27185;52.040;4.490;2024-01-30T04:03:38;12.00;99.90
41447;DHT22;27185;52.040;4.490;2024-01-30T04:06:24;12.00;99.90
41447;DHT22;27185;52.040;4.490;2024-01-30T04:09:09;12.00;99.90
41447;DHT22;27185;52.040;4.490;2024-01-30T04:11:55;12.00;99.90
41447;DHT22;27185;52.040;4.490;2024-01-30T04:14:40;12.00;99.90
41447;DHT22;27185;52.040;4.490;2024-01-30T04:17:26;12.00;99.90
41447;DHT22;27185;52.040;4.490;2024-01-30T04:20:14;12.00;99.90
41447;DHT22;27185;52.040;4.490;2024-01-30T04:23:00;12.00;99.90
41447;DHT22;27185;52.040;4.490;2024-01-30T04:25:46;12.10;99.90
41447;DHT22;27185;52.040;4.490;2024-01-30T04:28:32;12.10;99.90
41447;DHT22;27185;52.040;4.490;2024-01-30T04:31:17;12.10;99.90
41447;DHT22;27185;52.040;4.490;2024-01-30T04:34:03;12.10;99.90
41447;DHT22;27185;52.040;4.490;2024-01-30T04:36:49;12.10;99.90
41447;DHT22;27185;52.040;4.490;2024-01-30T04:39:34;12.10;99.90
41447;DHT22;27185;52.040;4.490;2024-01-30T04:42:20;12.10;99.90
41447;DHT22;27185;52.040;4.490;2024-01-30T04:45:06;12.10;99.90
41447;DHT22;27185;52.040;4.490;2024-01-30T04:47:52;12.10;99.90
41447;DHT22;27185;52.040;4.490;2024-01-30T04:50:37;12.10;99.90
41447;DHT22;27185;52.040;4.490;2024-01-30T04:53:23;12.10;99.90
41447;DHT22;27185;52.040;4.490;2024-01-30T04:56:08;12.20;99.90
41447;DHT22;27185;52.040;4.490;2024-01-30T04:58:54;12.20;99.90
41447;DHT22;27185;52.040;4.490;2024-01-30T05:01:39;12.20;99.90
41447;DHT22;27185;52.040;4.490;2024-01-30T05:04:25;12.20;99.90
41447;DHT22;27185;52.040;4.490;2024-01-30T05:07:11;12.20;99.90
41447;DHT22;27185;52.040;4.490;2024-01-30T05:09:56;12.20;99.90
41447;DHT22;27185;52.040;4.490;2024-01-30T05:12:42;12.20;99.90
41447;DHT22;27185;52.040;4.490;2024-01-30T05:15:27;12.20;99.90
41447;DHT22;27185;52.040;4.490;2024-01-30T05:18:13;12.30;99.90
41447;DHT22;27185;52.040;4.490;2024-01-30T05:20:58;12.20;99.90
41447;DHT22;27185;52.040;4.490;2024-01-30T05:23:45;12.20;99.90
41447;DHT22;27185;52.040;4.490;2024-01-30T05:26:30;12.20;99.90
41447;DHT22;27185;52.040;4.490;2024-01-30T05:29:16;12.30;99.90
41447;DHT22;27185;52.040;4.490;2024-01-30T05:32:03;12.30;99.90
41447;DHT22;27185;52.040;4.490;2024-01-30T05:34:48;12.30;99.90
41447;DHT22;27185;52.040;4.490;2024-01-30T05:37:35;12.30;99.90
41447;DHT22;27185;52.040;4.490;2024-01-30T05:40:21;12.30;99.90
41447;DHT22;27185;52.040;4.490;2024-01-30T05:43:07;12.30;99.90
41447;DHT22;27185;52.040;4.490;2024-01-30T05:45:53;12.40;99.90
41447;DHT22;27185;52.040;4.490;2024-01-30T05:48:38;12.40;99.90
41447;DHT22;27185;52.040;4.490;2024-01-30T05:51:24;12.40;99.90
41447;DHT22;27185;52.040;4.490;2024-01-30T05:54:09;12.40;99.90
41447;DHT22;27185;52.040;4.490;2024-01-30T05:56:55;12.40;99.90
41447;DHT22;27185;52.040;4.490;2024-01-30T05:59:41;12.40;99.90
41447;DHT22;27185;52.040;4.490;2024-01-30T06:02:26;12.40;99.90
41447;DHT22;27185;52.040;4.490;2024-01-30T06:05:12;12.40;99.90
41447;DHT22;27185;52.040;4.490;2024-01-30T06:07:58;12.40;99.90
41447;DHT22;27185;52.040;4.490;2024-01-30T06:10:43;12.40;99.90
41447;DHT22;27185;52.040;4.490;2024-01-30T06:13:29;12.50;99.90
41447;DHT22;27185;52.040;4.490;2024-01-30T06:16:17;12.50;99.90
41447;DHT22;27185;52.040;4.490;2024-01-30T06:19:02;12.50;99.90
41447;DHT22;27185;52.040;4.490;2024-01-30T06:21:48;12.50;99.90
41447;DHT22;27185;52.040;4.490;2024-01-30T06:24:34;12.50;99.90
41447;DHT22;27185;52.040;4.490;2024-01-30T06:27:20;12.50;99.90
41447;DHT22;27185;52.040;4.490;2024-01-30T06:30:06;12.50;99.90
41447;DHT22;27185;52.040;4.490;2024-01-30T06:32:51;12.60;99.90
41447;DHT22;27185;52.040;4.490;2024-01-30T06:35:37;12.50;99.90
41447;DHT22;27185;52.040;4.490;2024-01-30T06:38:25;12.60;99.90
41447;DHT22;27185;52.040;4.490;2024-01-30T06:41:11;12.60;99.90
41447;DHT22;27185;52.040;4.490;2024-01-30T06:43:57;12.60;99.90
41447;DHT22;27185;52.040;4.490;2024-01-30T06:46:42;12.60;99.90
41447;DHT22;27185;52.040;4.490;2024-01-30T06:49:28;12.60;99.90
41447;DHT22;27185;52.040;4.490;2024-01-30T06:52:13;12.60;99.90
41447;DHT22;27185;52.040;4.490;2024-01-30T06:54:59;12.60;99.90
41447;DHT22;27185;52.040;4.490;2024-01-30T06:57:45;12.70;99.90
41447;DHT22;27185;52.040;4.490;2024-01-30T07:00:31;12.70;99.90
41447;DHT22;27185;52.040;4.490;2024-01-30T07:03:16;12.70;99.90
41447;DHT22;27185;52.040;4.490;2024-01-30T07:06:02;12.70;99.90
41447;DHT22;27185;52.040;4.490;2024-01-30T07:08:48;12.80;99.90
41447;DHT22;27185;52.040;4.490;2024-01-30T07:11:34;12.80;99.90
41447;DHT22;27185;52.040;4.490;2024-01-30T07:14:20;12.80;99.90
41447;DHT22;27185;52.040;4.490;2024-01-30T07:17:05;12.80;99.90
41447;DHT22;27185;52.040;4.490;2024-01-30T07:19:51;12.90;99.90
41447;DHT22;27185;52.040;4.490;2024-01-30T07:22:37;12.90;99.90
41447;DHT22;27185;52.040;4.490;2024-01-30T07:25:22;12.90;99.90
41447;DHT22;27185;52.040;4.490;2024-01-30T07:28:12;12.90;99.90
41447;DHT22;27185;52.040;4.490;2024-01-30T07:30:59;13.00;99.90
41447;DHT22;27185;52.040;4.490;2024-01-30T07:33:44;13.00;99.90
41447;DHT22;27185;52.040;4.490;2024-01-30T07:36:30;13.00;99.90
41447;DHT22;27185;52.040;4.490;2024-01-30T07:39:15;13.00;99.90
41447;DHT22;27185;52.040;4.490;2024-01-30T07:42:01;13.00;99.90
41447;DHT22;27185;52.040;4.490;2024-01-30T07:44:46;13.00;99.90
41447;DHT22;27185;52.040;4.490;2024-01-30T07:47:32;13.00;99.90
41447;DHT22;27185;52.040;4.490;2024-01-30T07:50:18;13.10;99.90
41447;DHT22;27185;52.040;4.490;2024-01-30T07:53:04;13.10;99.90
41447;DHT22;27185;52.040;4.490;2024-01-30T07:55:49;13.10;99.90
41447;DHT22;27185;52.040;4.490;2024-01-30T07:58:35;13.20;99.90
41447;DHT22;27185;52.040;4.490;2024-01-30T08:01:20;13.20;99.90
41447;DHT22;27185;52.040;4.490;2024-01-30T08:04:06;13.20;99.90
41447;DHT22;27185;52.040;4.490;2024-01-30T08:06:51;13.20;99.90
41447;DHT22;27185;52.040;4.490;2024-01-30T08:09:37;13.20;99.90
41447;DHT22;27185;52.040;4.490;2024-01-30T08:12:23;13.20;99.90
41447;DHT22;27185;52.040;4.490;2024-01-30T08:15:08;13.20;99.90
41447;DHT22;27185;52.040;4.490;2024-01-30T08:17:54;13.30;99.90
41447;DHT22;27185;52.040;4.490;2024-01-30T08:20:43;13.30;99.90
41447;DHT22;27185;52.040;4.490;2024-01-30T08:23:28;13.30;99.90
41447;DHT22;27185;52.040;4.490;2024-01-30T08:26:14;13.30;99.90
41447;DHT22;27185;52.040;4.490;2024-01-30T08:28:59;13.30;99.90
41447;DHT22;27185;52.040;4.490;2024-01-30T08:31:45;13.30;99.90
41447;DHT22;27185;52.040;4.490;2024-01-30T08:34:31;13.30;99.90
41447;DHT22;27185;52.040;4.490;2024-01-30T08:37:18;13.40;99.90
41447;DHT22;27185;52.040;4.490;2024-01-30T08:40:04;13.40;99.90
41447;DHT22;27185;52.040;4.490;2024-01-30T08:42:50;13.40;99.90
41447;DHT22;27185;52.040;4.490;2024-01-30T08:45:35;13.40;99.90
41447;DHT22;27185;52.040;4.490;2024-01-30T08:48:21;13.40;99.90
41447;DHT22;27185;52.040;4.490;2024-01-30T08:51:08;13.40;99.90
41447;DHT22;27185;52.040;4.490;2024-01-30T08:53:53;13.40;99.90
41447;DHT22;27185;52.040;4.490;2024-01-30T08:56:39;13.40;99.90
41447;DHT22;27185;52.040;4.490;2024-01-30T08:59:25;13.50;99.90
41447;DHT22;27185;52.040;4.490;2024-01-30T09:02:10;13.40;99.90
41447;DHT22;27185;52.040;4.490;2024-01-30T09:04:57;13.40;99.90
41447;DHT22;27185;52.040;4.490;2024-01-30T09:07:43;13.50;99.90
41447;DHT22;27185;52.040;4.490;2024-01-30T09:10:28;13.40;99.90
41447;DHT22;27185;52.040;4.490;2024-01-30T09:13:14;13.40;99.90
41447;DHT22;27185;52.040;4.490;2024-01-30T09:16:00;13.40;99.90
41447;DHT22;27185;52.040;4.490;2024-01-30T09:18:45;13.40;99.90
41447;DHT22;27185;52.040;4.490;2024-01-30T09:21:31;13.40;99.90
41447;DHT22;27185;52.040;4.490;2024-01-30T09:24:16;13.30;99.90
41447;DHT22;27185;52.040;4.490;2024-01-30T09:27:03;13.30;99.90
41447;DHT22;27185;52.040;4.490;2024-01-30T09:29:49;13.30;99.90
41447;DHT22;27185;52.040;4.490;2024-01-30T09:32:35;13.20;99.90
41447;DHT22;27185;52.040;4.490;2024-01-30T09:35:20;13.20;99.90
41447;DHT22;27185;52.040;4.490;2024-01-30T09:38:06;13.10;99.90
41447;DHT22;27185;52.040;4.490;2024-01-30T09:40:54;13.00;99.90
41447;DHT22;27185;52.040;4.490;2024-01-30T09:43:47;13.10;99.90
41447;DHT22;27185;52.040;4.490;2024-01-30T09:46:34;13.10;99.90
41447;DHT22;27185;52.040;4.490;2024-01-30T09:49:20;13.10;99.90
41447;DHT22;27185;52.040;4.490;2024-01-30T09:52:10;13.00;99.90
41447;DHT22;27185;52.040;4.490;2024-01-30T09:54:59;13.00;99.90
41447;DHT22;27185;52.040;4.490;2024-01-30T09:57:45;12.80;99.90
41447;DHT22;27185;52.040;4.490;2024-01-30T10:00:31;12.80;99.90
41447;DHT22;27185;52.040;4.490;2024-01-30T10:03:16;12.60;99.90
41447;DHT22;27185;52.040;4.490;2024-01-30T10:06:04;12.70;99.90
41447;DHT22;27185;52.040;4.490;2024-01-30T10:08:50;12.50;99.90
41447;DHT22;27185;52.040;4.490;2024-01-30T10:11:36;12.50;99.90
41447;DHT22;27185;52.040;4.490;2024-01-30T10:14:22;12.40;99.90
41447;DHT22;27185;52.040;4.490;2024-01-30T10:17:11;12.40;99.90
41447;DHT22;27185;52.040;4.490;2024-01-30T10:19:57;12.40;99.90
41447;DHT22;27185;52.040;4.490;2024-01-30T10:22:42;12.40;99.90
41447;DHT22;27185;52.040;4.490;2024-01-30T10:25:31;12.20;99.90
41447;DHT22;27185;52.040;4.490;2024-01-30T10:28:17;12.30;99.90
41447;DHT22;27185;52.040;4.490;2024-01-30T10:31:03;12.30;99.90
41447;DHT22;27185;52.040;4.490;2024-01-30T10:33:49;12.30;99.90
41447;DHT22;27185;52.040;4.490;2024-01-30T10:36:40;12.20;99.90
41447;DHT22;27185;52.040;4.490;2024-01-30T10:39:29;12.30;99.90
41447;DHT22;27185;52.040;4.490;2024-01-30T10:42:18;12.20;99.90
41447;DHT22;27185;52.040;4.490;2024-01-30T10:45:11;12.00;99.90
41447;DHT22;27185;52.040;4.490;2024-01-30T10:48:04;12.00;99.90
41447;DHT22;27185;52.040;4.490;2024-01-30T10:50:51;11.80;99.90
41447;DHT22;27185;52.040;4.490;2024-01-30T10:53:39;11.70;99.90
41447;DHT22;27185;52.040;4.490;2024-01-30T10:56:26;11.70;99.90
41447;DHT22;27185;52.040;4.490;2024-01-30T10:59:13;11.60;99.90
41447;DHT22;27185;52.040;4.490;2024-01-30T11:01:59;11.50;99.90
41447;DHT22;27185;52.040;4.490;2024-01-30T11:04:45;11.40;99.90
41447;DHT22;27185;52.040;4.490;2024-01-30T11:07:31;11.40;99.90
41447;DHT22;27185;52.040;4.490;2024-01-30T11:10:17;11.40;99.90
41447;DHT22;27185;52.040;4.490;2024-01-30T11:13:10;11.40;99.90
41447;DHT22;27185;52.040;4.490;2024-01-30T11:16:00;11.40;99.90
41447;DHT22;27185;52.040;4.490;2024-01-30T11:18:50;11.40;99.90
41447;DHT22;27185;52.040;4.490;2024-01-30T11:21:42;11.40;99.90
41447;DHT22;27185;52.040;4.490;2024-01-30T11:24:27;11.30;99.90
41447;DHT22;27185;52.040;4.490;2024-01-30T11:27:13;11.30;99.90
41447;DHT22;27185;52.040;4.490;2024-01-30T11:30:03;11.20;99.90
41447;DHT22;27185;52.040;4.490;2024-01-30T11:33:01;11.10;99.90
41447;DHT22;27185;52.040;4.490;2024-01-30T11:35:50;11.10;99.90
41447;DHT22;27185;52.040;4.490;2024-01-30T11:38:36;11.00;99.90
41447;DHT22;27185;52.040;4.490;2024-01-30T11:41:22;11.00;99.90
41447;DHT22;27185;52.040;4.490;2024-01-30T11:44:08;11.00;99.90
41447;DHT22;27185;52.040;4.490;2024-01-30T11:46:54;11.10;99.90
41447;DHT22;27185;52.040;4.490;2024-01-30T11:49:41;11.10;99.90
41447;DHT22;27185;52.040;4.490;2024-01-30T11:52:26;11.10;99.90
41447;DHT22;27185;52.040;4.490;2024-01-30T11:55:14;11.10;99.90
41447;DHT22;27185;52.040;4.490;2024-01-30T11:58:00;11.10;99.90
41447;DHT22;27185;52.040;4.490;2024-01-30T12:00:55;11.10;99.90
41447;DHT22;27185;52.040;4.490;2024-01-30T12:03:41;11.10;99.90
41447;DHT22;27185;52.040;4.490;2024-01-30T12:06:27;11.10;99.90
41447;DHT22;27185;52.040;4.490;2024-01-30T12:09:13;11.10;99.90
41447;DHT22;27185;52.040;4.490;2024-01-30T12:11:58;11.00;99.90
41447;DHT22;27185;52.040;4.490;2024-01-30T12:14:45;11.00;99.90
41447;DHT22;27185;52.040;4.490;2024-01-30T12:17:32;11.00;99.90
41447;DHT22;27185;52.040;4.490;2024-01-30T12:20:19;10.90;99.90
41447;DHT22;27185;52.040;4.490;2024-01-30T12:23:04;10.90;99.90
41447;DHT22;27185;52.040;4.490;2024-01-30T12:25:50;10.90;99.90
41447;DHT22;27185;52.040;4.490;2024-01-30T12:28:36;10.90;99.90
41447;DHT22;27185;52.040;4.490;2024-01-30T12:31:28;10.80;99.90
41447;DHT22;27185;52.040;4.490;2024-01-30T12:34:14;10.80;99.90
41447;DHT22;27185;52.040;4.490;2024-01-30T12:37:02;10.80;99.90
41447;DHT22;27185;52.040;4.490;2024-01-30T12:39:48;10.70;99.90
41447;DHT22;27185;52.040;4.490;2024-01-30T12:42:34;10.70;99.90
41447;DHT22;27185;52.040;4.490;2024-01-30T12:45:20;10.70;99.90
41447;DHT22;27185;52.040;4.490;2024-01-30T12:48:08;10.70;99.90
41447;DHT22;27185;52.040;4.490;2024-01-30T12:50:54;10.70;99.90
41447;DHT22;27185;52.040;4.490;2024-01-30T12:53:39;10.70;99.90
41447;DHT22;27185;52.040;4.490;2024-01-30T12:56:25;10.70;99.90
41447;DHT22;27185;52.040;4.490;2024-01-30T12:59:11;10.70;99.90
41447;DHT22;27185;52.040;4.490;2024-01-30T13:01:56;10.70;99.90
41447;DHT22;27185;52.040;4.490;2024-01-30T13:04:42;10.60;99.90
41447;DHT22;27185;52.040;4.490;2024-01-30T13:07:28;10.60;99.90
41447;DHT22;27185;52.040;4.490;2024-01-30T13:10:13;10.60;99.90
41447;DHT22;27185;52.040;4.490;2024-01-30T13:12:59;10.50;99.90
41447;DHT22;27185;52.040;4.490;2024-01-30T13:15:44;10.50;99.90
41447;DHT22;27185;52.040;4.490;2024-01-30T13:18:30;10.50;99.90
41447;DHT22;27185;52.040;4.490;2024-01-30T13:21:16;10.50;99.90
41447;DHT22;27185;52.040;4.490;2024-01-30T13:24:03;10.40;99.90
41447;DHT22;27185;52.040;4.490;2024-01-30T13:26:48;10.30;99.90
41447;DHT22;27185;52.040;4.490;2024-01-30T13:29:34;10.30;99.90
41447;DHT22;27185;52.040;4.490;2024-01-30T13:32:20;10.30;99.90
41447;DHT22;27185;52.040;4.490;2024-01-30T13:35:06;10.30;99.90
41447;DHT22;27185;52.040;4.490;2024-01-30T13:37:52;10.20;99.90
41447;DHT22;27185;52.040;4.490;2024-01-30T13:40:38;10.30;99.90
41447;DHT22;27185;52.040;4.490;2024-01-30T13:43:23;10.30;99.90
41447;DHT22;27185;52.040;4.490;2024-01-30T13:46:09;10.30;99.90
41447;DHT22;27185;52.040;4.490;2024-01-30T13:48:54;10.20;99.90
41447;DHT22;27185;52.040;4.490;2024-01-30T13:51:40;10.30;99.90
41447;DHT22;27185;52.040;4.490;2024-01-30T13:54:25;10.20;99.90
41447;DHT22;27185;52.040;4.490;2024-01-30T13:57:11;10.20;99.90
41447;DHT22;27185;52.040;4.490;2024-01-30T13:59:57;10.10;99.90
41447;DHT22;27185;52.040;4.490;2024-01-30T14:02:42;10.10;99.90
41447;DHT22;27185;52.040;4.490;2024-01-30T14:05:28;10.10;99.90
41447;DHT22;27185;52.040;4.490;2024-01-30T14:08:13;10.20;99.90
41447;DHT22;27185;52.040;4.490;2024-01-30T14:10:59;10.20;99.90
41447;DHT22;27185;52.040;4.490;2024-01-30T14:13:45;10.10;99.90
41447;DHT22;27185;52.040;4.490;2024-01-30T14:16:30;10.10;99.90
41447;DHT22;27185;52.040;4.490;2024-01-30T14:19:16;10.20;99.90
41447;DHT22;27185;52.040;4.490;2024-01-30T14:22:02;10.10;99.90
41447;DHT22;27185;52.040;4.490;2024-01-30T14:24:47;10.20;99.90
41447;DHT22;27185;52.040;4.490;2024-01-30T14:27:33;10.10;99.90
41447;DHT22;27185;52.040;4.490;2024-01-30T14:30:18;10.10;99.90
41447;DHT22;27185;52.040;4.490;2024-01-30T14:33:04;10.10;99.90
41447;DHT22;27185;52.040;4.490;2024-01-30T14:35:50;10.10;99.90
41447;DHT22;27185;52.040;4.490;2024-01-30T14:38:36;10.00;99.90
41447;DHT22;27185;52.040;4.490;2024-01-30T14:41:21;10.10;99.90
41447;DHT22;27185;52.040;4.490;2024-01-30T14:44:07;10.10;99.90
41447;DHT22;27185;52.040;4.490;2024-01-30T14:46:53;10.10;99.90
41447;DHT22;27185;52.040;4.490;2024-01-30T14:49:40;10.10;99.90
41447;DHT22;27185;52.040;4.490;2024-01-30T14:52:26;10.10;99.90
41447;DHT22;27185;52.040;4.490;2024-01-30T14:55:11;10.10;99.90
41447;DHT22;27185;52.040;4.490;2024-01-30T14:57:57;10.10;99.90
41447;DHT22;27185;52.040;4.490;2024-01-30T15:00:44;10.10;99.90
41447;DHT22;27185;52.040;4.490;2024-01-30T15:03:30;10.10;99.90
41447;DHT22;27185;52.040;4.490;2024-01-30T15:06:15;10.10;99.90
41447;DHT22;27185;52.040;4.490;2024-01-30T15:09:01;10.10;99.90
41447;DHT22;27185;52.040;4.490;2024-01-30T15:11:46;10.10;99.90
41447;DHT22;27185;52.040;4.490;2024-01-30T15:14:32;10.10;99.90
41447;DHT22;27185;52.040;4.490;2024-01-30T15:17:18;10.10;99.90
41447;DHT22;27185;52.040;4.490;2024-01-30T15:20:04;10.10;99.90
41447;DHT22;27185;52.040;4.490;2024-01-30T15:22:50;10.10;99.90
41447;DHT22;27185;52.040;4.490;2024-01-30T15:25:36;10.10;99.90
41447;DHT22;27185;52.040;4.490;2024-01-30T15:28:37;10.10;99.90
41447;DHT22;27185;52.040;4.490;2024-01-30T15:31:23;10.10;99.90
41447;DHT22;27185;52.040;4.490;2024-01-30T15:34:09;10.10;99.90
41447;DHT22;27185;52.040;4.490;2024-01-30T15:36:55;10.10;99.90
41447;DHT22;27185;52.040;4.490;2024-01-30T15:39:40;10.10;99.90
41447;DHT22;27185;52.040;4.490;2024-01-30T15:42:26;10.10;99.90
41447;DHT22;27185;52.040;4.490;2024-01-30T15:45:12;10.10;99.90
41447;DHT22;27185;52.040;4.490;2024-01-30T15:47:57;10.10;99.90
41447;DHT22;27185;52.040;4.490;2024-01-30T15:50:43;10.00;99.90
41447;DHT22;27185;52.040;4.490;2024-01-30T15:53:29;10.00;99.90
41447;DHT22;27185;52.040;4.490;2024-01-30T15:56:15;10.00;99.90
41447;DHT22;27185;52.040;4.490;2024-01-30T15:59:01;10.00;99.90
41447;DHT22;27185;52.040;4.490;2024-01-30T16:01:47;10.00;99.90
41447;DHT22;27185;52.040;4.490;2024-01-30T16:04:34;10.00;99.90
41447;DHT22;27185;52.040;4.490;2024-01-30T16:07:19;9.90;99.90
41447;DHT22;27185;52.040;4.490;2024-01-30T16:10:05;10.00;99.90
41447;DHT22;27185;52.040;4.490;2024-01-30T16:12:52;9.90;99.90
41447;DHT22;27185;52.040;4.490;2024-01-30T16:15:38;9.90;99.90
41447;DHT22;27185;52.040;4.490;2024-01-30T16:18:25;9.90;99.90
41447;DHT22;27185;52.040;4.490;2024-01-30T16:21:11;9.90;99.90
41447;DHT22;27185;52.040;4.490;2024-01-30T16:23:59;9.90;99.90
41447;DHT22;27185;52.040;4.490;2024-01-30T16:26:45;9.90;99.90
41447;DHT22;27185;52.040;4.490;2024-01-30T16:29:30;9.90;99.90
41447;DHT22;27185;52.040;4.490;2024-01-30T16:32:16;9.90;99.90
41447;DHT22;27185;52.040;4.490;2024-01-30T16:35:02;9.80;99.90
41447;DHT22;27185;52.040;4.490;2024-01-30T16:37:48;9.80;99.90
41447;DHT22;27185;52.040;4.490;2024-01-30T16:40:33;9.80;99.90
41447;DHT22;27185;52.040;4.490;2024-01-30T16:43:19;9.80;99.90
41447;DHT22;27185;52.040;4.490;2024-01-30T16:46:04;9.80;99.90
41447;DHT22;27185;52.040;4.490;2024-01-30T16:48:50;9.80;99.90
41447;DHT22;27185;52.040;4.490;2024-01-30T16:51:36;9.80;99.90
41447;DHT22;27185;52.040;4.490;2024-01-30T16:54:21;9.80;99.90
41447;DHT22;27185;52.040;4.490;2024-01-30T16:57:07;9.80;99.90
41447;DHT22;27185;52.040;4.490;2024-01-30T16:59:53;9.80;99.90
41447;DHT22;27185;52.040;4.490;2024-01-30T17:02:38;9.80;99.90
41447;DHT22;27185;52.040;4.490;2024-01-30T17:05:24;9.80;99.90
41447;DHT22;27185;52.040;4.490;2024-01-30T17:08:09;9.80;99.90
41447;DHT22;27185;52.040;4.490;2024-01-30T17:10:55;9.80;99.90
41447;DHT22;27185;52.040;4.490;2024-01-30T17:13:41;9.80;99.90
41447;DHT22;27185;52.040;4.490;2024-01-30T17:16:26;9.80;99.90
41447;DHT22;27185;52.040;4.490;2024-01-30T17:19:12;9.80;99.90
41447;DHT22;27185;52.040;4.490;2024-01-30T17:21:58;9.70;99.90
41447;DHT22;27185;52.040;4.490;2024-01-30T17:24:43;9.70;99.90
41447;DHT22;27185;52.040;4.490;2024-01-30T17:27:29;9.70;99.90
41447;DHT22;27185;52.040;4.490;2024-01-30T17:30:20;9.70;99.90